Main page
METAR-TAF:

METAR-TAF

Airports :

Singapore, Singapore

Paya Lebar Air Base

latitude: 01-22N, longitude: 103-55E, elevation: 18 m

Current weather observation

The report was made 27 minutes ago, at 22:00 UTC
Wind 2 kt from the East
Temperature 28°C
Humidity 89%
Pressure 1009 hPa
Visibility 10 km or more
Few clouds at a height of 1500 ft
Broken clouds at a height of 30000 ft

METAR: WSAP 192200Z 08002KT 9999 FEW015 BKN300 28/26 Q1009

Time: 06:27 (22:27 UTC)

Forecast

The report was made 5 hours and 27 minutes ago, at 17:00 UTC
Forecast valid from 19 at 18 UTC to 21 at 00 UTC
Wind 9 kt from the South/Southeast
Visibility 10 km or more
Few clouds at a height of 1800 ft, Cumulonimbus.
Scattered clouds at a height of 2000 ft
Temporary
from 20 at 02 UTC to 20 at 06 UTC
Visibility: 3000 m
Few clouds at a height of 1200 ft, Cumulonimbus.
Broken clouds at a height of 1500 ft
thunderstorm, rain

TAF: WSAP 191700Z 1918/2100 15009KT 9999 FEW018CB SCT020 TEMPO 2002/2006 3000 TSRA FEW012CB BKN015

Weather observations and forecasts of more than 4000 airports (METAR and TAF reports).

The available stations are represented by yellow and red dots on the map.

Hover mouse over dot to see the name of the station.

Then click to see weather observations and forecasts.

To change the map : click on the green buttons with a black cross to zoom in, on the green button with a dash to zoom out, or on the green arrows for adjacent maps.


METAR-TAF: